Scroll down
FLIGHT INFORMATION
KLM Royal Dutch Airlines

KLM997P

At Arrival Gate

EGPF
 EHAM
DATE: 2021-02-10
GATE: G3
GATE DEPARTURE: 22:32
TAKEOFF: 22:45
DATE: 2021-02-10
GATE: F9
LANDING: 23:47
GATE ARRIVAL: 23:54
FLIGHT DATA
Crew: 
Speed: 
888 kph
Altitude: 
39,017 ft
Stage Length: 
718.0 km
Block Time: 
1.3 hrs
Flight Time: 
1 hrs
Fuel Used: 
7,654 kg
Cleared Route: EGPF XEXUS ELBAN TRN35 NORBO TLA HAVEN IPSAD OTBUN AGPED NATEB ROKAN TOPPA MONIL ROBVI SUGOL RW06
TRACK DATA
50,000 ft 1,000 kts
AIRCRAFT INFO AND CUMULATIVE STATS
Aircraft Type: 
B77L
Registration: 
SELCAL: 
MSN/LN: 
0 / 1
Total Flights: 
2
Total Block Time: 
2.8 hrs
Total Flight Time: 
2.4 hrs
Total Fuel Used: 
16,567 kg
DATALINK LOG | Newest first | Current as of: 2022-10-04 20:21:17
LABEL SEQUENCE CONTENT Dn/Up
QD583423:54 14▼ Dn
QC502723:47▼ Dn
GA3020GATE F9▲ Up
GR3010EHAM 23:48 MAAS 00 YP/UM 00/00 WCHR/S/C 00/00/00 HI-VAL NO DIPL/VIP NO▼ Dn
2U2252EHAM 102155Z VRB02KT 9999 FEW040 M04/M07 Q1023 R99/////95 NOSIG▲ Up
2S2505EHAM▼ Dn
QB493322:45▼ Dn
QA352022:32 31.1▼ Dn
2U0544EGPF 102020Z VRB01KT CAVOK M06/M07 Q1027▲ Up
2S0759EGPF▼ Dn
Q00657[LINK ACK]▲ Up
Q00657[LINK TEST]▼ Dn


AIRCRAFT HISTORY
FLIGHT DATE FLIGHT NO. ORIGIN DESTINATION CLEARED ROUTE BLOCK TIME FLIGHT TIME FUEL USED PILOT
2021-02-10KLM997PEGPF EHAM EGPF XEXUS ELBAN TRN35 NORBO TLA HAVEN IPSAD OTBUN AGPED NATEB ROKAN TOPPA MONIL ROBVI SUGOL RW061.3 hrs1 hrs16,873 lbEmanuel Hagen
2020-12-31KLM1230EHAM EGPF EHAM EH080 EH051 EH009 DENAG IDRID ABNED IBNOS XAMAN LOGAN JACKO TRIPO SABER LIVSU MANGO BRASO WESUL STOAT MOGLI BETAX MAMUL HALIF APPLE ASLIB ENIPI ODIGI VAPPI LANAK CF23 RW231.5 hrs1.3 hrs19,651 lbRandall Smith